메인 페이지
METAR-TAF:

METAR-TAF

공항 :

치타, 러시아

위도: 52-05N, 경도: 113-29E, 고도: 685m

현재 날씨관측

예보는 15분 전, 00:30시(UTC)에 발표되었습니다.
6kt
온도 -19°C
습도 64%
기압 1023 hPa
시정 10km 이상

METAR: UIAA 180030Z 18003MPS 9999 NSC M19/M24 Q1023 R29/810160 NOSIG RMK QFE708/0945

시각: 09:45 (00:45 UTC)

예보

예보는 1 시간 45분 전, 23:00시(UTC)에 발표되었습니다.
예보 대상 시간: 18일 00시부터 18일 24시까지 (UTC)
남서6kt, 순간 최대 풍속 16kt
시정 10km 이상

TAF: UIAA 172300Z 1800/1824 23003G08MPS 9999 NSC

4,000개 이상의 공항 관측 자료 및 예보 (METAR 및 TAF 보고).

지도상에서 검색 가능한 기상관측소가 노란 점과 빨간 점으로 표시되어 있습니다.

기상관측소 명을 보려면 표시 위로 마우스를 이동하세요.

날씨 관측과 예보를 보려면 클릭하세요.

지도 변경 : 확대하려면 엑스 표시가 있는 녹색 버튼, 축소하려면 빼기 표시가 있는 녹색 버튼, 다음 페이지의 지도를 보려면 녹색 화살표를 클릭하세요.


METAR-TAF: